Terminal Aerodrome Forecast
Issued by NWS

Home | Current Version | Previous Version | Text Only | Print | Product List | Glossary On
Versions: 1 2 3 4 5 6 7 8 9 10 11 12 13 14 15 16 17 18 19
000
FTUS43 KSGF 271700 RRA
TAFBBG
TAF
KBBG 271741Z 2718/2818 32012KT P6SM VCSH BKN010 OVC045
      TEMPO 2718/2720 4SM -RASN BR
     FM272000 33007KT 6SM -RASN BR BKN010 OVC040
      TEMPO 2720/2724 4SM -RASN BR OVC008
     FM280200 33007KT P6SM SCT007 OVC015
     FM280600 33006KT P6SM OVC020
     FM281200 33005KT P6SM FEW150 BKN250=

USA.gov is the U.S. government's official web portal to all federal, state and local government web resources and services.